Time;durP1;ratioP1;P1;durP2;ratioP2;P2;SDS_P1;SDS_P2;PMS_P1;PMS_P2;Temp;Humidity;BMP_temperature;BMP_pressure;BME280_temperature;BME280_humidity;BME280_pressure;Samples;Min_cycle;Max_cycle;Signal;HPM_P1;HPM_P2
2022/04/27 00:01:14;;;;;;;11.93;8.13;;;;;;;;;;5019682;28;20435;-66
2022/04/27 00:03:41;;;;;;;11.30;8.20;;;;;;;;;;5029330;28;20431;-67
2022/04/27 00:06:08;;;;;;;15.45;8.23;;;;;;;;;;5030004;28;20427;-67
2022/04/27 00:08:34;;;;;;;13.27;8.20;;;;;;;;;;5028609;28;20432;-67
2022/04/27 00:11:01;;;;;;;13.73;8.50;;;;;;;;;;5025954;28;20514;-67
2022/04/27 00:13:26;;;;;;;13.77;8.25;;;8.60;99.90;;;;;;5018424;28;20434;-67
2022/04/27 00:15:52;;;;;;;13.90;8.37;;;;;;;;;;5021511;28;20432;-67
2022/04/27 00:18:18;;;;;;;14.65;9.10;;;;;;;;;;5018939;28;20563;-67
2022/04/27 00:20:44;;;;;;;14.75;8.57;;;;;;;;;;5022124;28;20432;-67
2022/04/27 00:23:11;;;;;;;14.65;8.75;;;;;;;;;;5035218;28;20428;-67
2022/04/27 00:25:37;;;;;;;15.15;8.40;;;;;;;;;;5012727;28;20437;-66
2022/04/27 00:28:04;;;;;;;14.27;8.68;;;;;;;;;;5033530;28;20421;-67
2022/04/27 00:30:33;;;;;;;13.52;8.43;;;;;;;;;;5032707;28;20480;-67
2022/04/27 00:32:59;;;;;;;13.80;8.40;;;;;;;;;;5024898;28;20490;-68
2022/04/27 00:35:25;;;;;;;14.68;8.27;;;;;;;;;;5031044;28;20446;-66
2022/04/27 00:37:51;;;;;;;15.88;8.93;;;;;;;;;;5027236;28;20493;-67
2022/04/27 00:40:17;;;;;;;17.35;8.70;;;;;;;;;;5017430;28;20411;-67
2022/04/27 00:42:43;;;;;;;17.67;8.63;;;;;;;;;;5018639;28;20455;-67
2022/04/27 00:45:09;;;;;;;13.50;8.25;;;;;;;;;;5029314;28;20447;-67
2022/04/27 00:47:35;;;;;;;17.52;8.80;;;;;;;;;;5022224;28;20426;-66
2022/04/27 00:50:02;;;;;;;14.55;8.23;;;;;;;;;;5022511;28;20432;-68
2022/04/27 00:52:32;;;;;;;16.48;8.48;;;8.80;99.90;;;;;;5021230;28;20424;-66
2022/04/27 00:54:58;;;;;;;17.60;8.55;;;;;;;;;;5017073;28;20425;-67
2022/04/27 00:57:25;;;;;;;15.02;8.15;;;;;;;;;;5034040;28;20473;-66
2022/04/27 00:59:52;;;;;;;17.35;8.82;;;;;;;;;;5019928;28;20469;-67
2022/04/27 01:02:18;;;;;;;16.30;9.20;;;8.90;99.90;;;;;;5022470;28;20445;-67
2022/04/27 01:04:45;;;;;;;15.00;8.63;;;;;;;;;;5022567;28;20994;-67
2022/04/27 01:07:14;;;;;;;13.63;8.57;;;;;;;;;;5017782;28;20531;-67
2022/04/27 01:09:40;;;;;;;12.67;8.47;;;;;;;;;;5027649;28;20481;-66
2022/04/27 01:12:07;;;;;;;16.48;8.65;;;;;;;;;;5018196;28;20492;-67
2022/04/27 01:14:43;;;;;;;14.25;8.18;;;;;;;;;;5032934;28;20435;-66
2022/04/27 01:17:09;;;;;;;15.93;8.77;;;;;;;;;;5019542;28;20427;-66
2022/04/27 01:19:35;;;;;;;13.38;8.52;;;;;;;;;;5017104;28;20431;-67
2022/04/27 01:22:02;;;;;;;13.50;8.30;;;8.60;99.90;;;;;;5030996;28;21043;-66
2022/04/27 01:24:29;;;;;;;15.13;8.52;;;;;;;;;;5026713;28;20500;-67
2022/04/27 01:26:55;;;;;;;14.40;8.30;;;;;;;;;;5033209;28;20453;-67
2022/04/27 01:29:25;;;;;;;12.80;8.38;;;;;;;;;;5022188;28;20442;-67
2022/04/27 01:31:52;;;;;;;11.93;8.63;;;;;;;;;;5032432;28;20914;-66
2022/04/27 01:34:19;;;;;;;12.40;8.20;;;;;;;;;;5021013;28;20435;-67
2022/04/27 01:36:45;;;;;;;14.10;8.70;;;;;;;;;;5033427;28;20419;-66
2022/04/27 01:39:11;;;;;;;13.63;8.90;;;8.50;99.90;;;;;;5022610;28;20983;-67
2022/04/27 01:41:37;;;;;;;14.35;9.00;;;;;;;;;;5023412;28;20500;-67
2022/04/27 01:44:04;;;;;;;13.68;8.70;;;;;;;;;;5032711;28;20447;-67
2022/04/27 01:46:30;;;;;;;14.80;8.75;;;;;;;;;;5028690;28;20482;-67
2022/04/27 01:48:56;;;;;;;12.50;7.97;;;;;;;;;;5028957;28;20425;-67
2022/04/27 01:54:17;;;;;;;12.15;8.55;;;;;;;;;;5025531;28;20488;-67
2022/04/27 01:56:50;;;;;;;13.53;8.33;;;8.50;99.90;;;;;;5014044;28;20473;-66
2022/04/27 01:59:16;;;;;;;12.68;8.20;;;;;;;;;;5023840;28;20955;-66
2022/04/27 02:01:42;;;;;;;15.43;8.30;;;;;;;;;;5030495;28;20533;-67
2022/04/27 02:04:09;;;;;;;14.18;8.90;;;;;;;;;;5028813;28;20439;-67
2022/04/27 02:06:38;;;;;;;14.02;8.55;;;;;;;;;;5024060;28;20487;-66
2022/04/27 02:09:05;;;;;;;12.25;8.10;;;8.40;99.90;;;;;;5033260;28;20425;-65
2022/04/27 02:11:34;;;;;;;12.97;8.10;;;;;;;;;;5029129;28;20455;-66
2022/04/27 02:14:01;;;;;;;16.95;8.90;;;;;;;;;;5028860;28;20426;-66
2022/04/27 02:16:28;;;;;;;17.30;8.45;;;;;;;;;;5021046;28;20432;-66
2022/04/27 02:18:55;;;;;;;12.73;7.93;;;;;;;;;;5024349;28;20799;-66
2022/04/27 02:21:22;;;;;;;15.70;8.68;;;;;;;;;;5021190;28;20425;-66
2022/04/27 02:23:49;;;;;;;13.32;8.57;;;;;;;;;;5030370;28;20416;-66
2022/04/27 02:26:16;;;;;;;12.45;8.45;;;;;;;;;;5030495;28;20470;-66
2022/04/27 02:28:42;;;;;;;12.60;8.55;;;;;;;;;;5025102;28;20425;-66
2022/04/27 02:31:08;;;;;;;16.85;8.30;;;;;;;;;;5029825;28;20437;-66
2022/04/27 02:33:34;;;;;;;11.30;7.78;;;;;;;;;;5033657;28;20561;-66
2022/04/27 02:36:01;;;;;;;13.77;8.13;;;;;;;;;;5037802;28;20415;-66
2022/04/27 02:38:27;;;;;;;16.85;9.05;;;;;;;;;;5033979;28;20407;-67
2022/04/27 02:40:54;;;;;;;13.60;7.87;;;;;;;;;;5028385;28;20425;-66
2022/04/27 02:43:21;;;;;;;14.05;8.38;;;;;;;;;;5019638;28;20412;-67
2022/04/27 02:45:48;;;;;;;15.68;8.85;;;8.10;99.90;;;;;;5023710;28;20430;-67
2022/04/27 02:48:14;;;;;;;13.43;8.53;;;;;;;;;;5035017;28;20454;-67
2022/04/27 02:53:26;;;;;;;12.13;8.55;;;;;;;;;;5027201;28;20440;-67
2022/04/27 02:55:52;;;;;;;12.18;8.20;;;;;;;;;;5030206;28;20438;-67
2022/04/27 02:58:18;;;;;;;13.48;8.50;;;;;;;;;;5026396;28;20431;-67
2022/04/27 03:00:45;;;;;;;15.10;7.60;;;;;;;;;;5023822;28;20575;-66
2022/04/27 03:03:11;;;;;;;11.13;7.60;;;;;;;;;;5032038;28;20450;-67
2022/04/27 03:05:37;;;;;;;11.90;7.22;;;;;;;;;;5028350;28;20431;-67
2022/04/27 03:08:04;;;;;;;11.15;7.38;;;;;;;;;;5023590;28;20484;-67
2022/04/27 03:10:30;;;;;;;13.75;7.65;;;;;;;;;;5027307;28;20939;-66
2022/04/27 03:12:56;;;;;;;12.77;7.93;;;;;;;;;;5028247;28;20424;-67
2022/04/27 03:15:22;;;;;;;12.05;7.53;;;;;;;;;;5025441;28;20435;-67
2022/04/27 03:18:16;;;;;;;12.32;7.88;;;8.30;99.90;;;;;;5024191;28;20860;-66
2022/04/27 03:20:34;;;;;;;11.70;7.65;;;;;;;;;;5029850;28;20435;-67
2022/04/27 03:23:01;;;;;;;13.10;7.70;;;8.40;99.90;;;;;;5027385;28;20460;-67
2022/04/27 03:25:27;;;;;;;12.13;8.20;;;;;;;;;;5020998;28;20439;-67
2022/04/27 03:27:53;;;;;;;11.85;7.63;;;;;;;;;;5026293;28;20440;-67
2022/04/27 03:30:19;;;;;;;12.52;7.88;;;;;;;;;;5033667;28;20457;-67
2022/04/27 03:32:45;;;;;;;14.80;8.05;;;;;;;;;;5020889;28;20547;-67
2022/04/27 03:35:11;;;;;;;11.03;7.87;;;8.70;99.90;;;;;;5025014;28;20432;-67
2022/04/27 03:37:37;;;;;;;13.30;8.13;;;;;;;;;;5028464;28;20430;-67
2022/04/27 03:40:04;;;;;;;13.30;7.67;;;;;;;;;;5020466;28;20468;-67
2022/04/27 03:42:30;;;;;;;12.02;7.95;;;;;;;;;;5023310;28;20435;-67
2022/04/27 03:44:56;;;;;;;12.07;7.90;;;;;;;;;;5033569;28;20439;-66
2022/04/27 03:47:22;;;;;;;11.50;7.68;;;;;;;;;;5031846;28;20435;-66
2022/04/27 03:49:48;;;;;;;13.27;7.80;;;;;;;;;;5021317;28;20442;-66
2022/04/27 03:52:14;;;;;;;9.98;7.43;;;;;;;;;;5031080;28;20505;-66
2022/04/27 03:54:40;;;;;;;17.90;7.45;;;8.10;99.90;;;;;;5022099;28;20431;-67
2022/04/27 03:57:06;;;;;;;12.63;7.20;;;;;;;;;;5031883;28;20442;-67
2022/04/27 03:59:32;;;;;;;17.27;7.50;;;;;;;;;;5030645;28;20482;-67
2022/04/27 04:01:58;;;;;;;13.43;7.40;;;;;;;;;;5029410;28;20441;-67
2022/04/27 04:04:24;;;;;;;11.65;7.95;;;;;;;;;;5021649;28;20486;-67
2022/04/27 04:06:50;;;;;;;9.35;6.75;;;;;;;;;;5029848;28;20438;-67
2022/04/27 04:09:16;;;;;;;12.07;7.07;;;;;;;;;;5021889;28;20439;-67
2022/04/27 04:11:43;;;;;;;10.07;7.03;;;;;;;;;;5023499;28;20433;-68
2022/04/27 04:14:09;;;;;;;12.25;6.90;;;;;;;;;;5022314;28;20441;-67
2022/04/27 04:16:35;;;;;;;13.63;7.20;;;;;;;;;;5027929;28;20907;-67
2022/04/27 04:19:01;;;;;;;12.48;7.47;;;;;;;;;;5030263;28;20438;-68
2022/04/27 04:21:27;;;;;;;11.43;6.78;;;;;;;;;;5030636;28;20423;-67
2022/04/27 04:23:53;;;;;;;11.13;7.18;;;8.20;99.90;;;;;;5020929;28;20439;-66
2022/04/27 04:29:03;;;;;;;10.30;7.22;;;;;;;;;;5027153;28;20817;-67
2022/04/27 04:31:29;;;;;;;11.95;6.93;;;;;;;;;;5034465;28;20470;-68
2022/04/27 04:33:55;;;;;;;14.10;7.60;;;;;;;;;;5032710;28;20937;-67
2022/04/27 04:36:21;;;;;;;10.75;7.20;;;;;;;;;;5025418;28;20418;-66
2022/04/27 04:38:47;;;;;;;12.43;7.47;;;;;;;;;;5021454;28;20421;-66
2022/04/27 04:41:13;;;;;;;10.95;7.22;;;;;;;;;;5031887;28;20430;-67
2022/04/27 04:43:40;;;;;;;11.02;7.07;;;;;;;;;;5031848;28;20419;-66
2022/04/27 04:46:06;;;;;;;9.95;7.00;;;;;;;;;;5033208;28;20944;-67
2022/04/27 04:48:32;;;;;;;14.82;7.70;;;;;;;;;;5026502;28;20419;-67
2022/04/27 04:50:58;;;;;;;12.80;7.45;;;;;;;;;;5017163;28;20645;-67
2022/04/27 04:53:24;;;;;;;12.15;6.63;;;;;;;;;;5025205;28;20810;-67
2022/04/27 04:55:50;;;;;;;13.20;7.47;;;;;;;;;;5023964;28;21237;-67
2022/04/27 04:58:16;;;;;;;9.20;6.60;;;8.30;99.90;;;;;;5029504;28;20424;-68
2022/04/27 05:00:42;;;;;;;10.98;6.47;;;8.40;99.90;;;;;;5033731;28;20435;-66
2022/04/27 05:03:09;;;;;;;10.68;6.78;;;;;;;;;;5022850;28;20469;-67
2022/04/27 05:05:38;;;;;;;9.88;5.57;;;;;;;;;;5035133;28;20435;-66
2022/04/27 05:08:06;;;;;;;10.13;5.43;;;;;;;;;;5019727;28;20432;-66
2022/04/27 05:10:32;;;;;;;9.13;5.05;;;;;;;;;;5017291;28;20409;-67
2022/04/27 05:12:58;;;;;;;7.65;5.15;;;;;;;;;;5024635;28;20749;-66
2022/04/27 05:15:24;;;;;;;7.60;5.05;;;;;;;;;;5029607;28;20444;-66
2022/04/27 05:17:50;;;;;;;7.72;4.25;;;;;;;;;;5023602;28;21862;-66
2022/04/27 05:20:16;;;;;;;6.47;3.50;;;;;;;;;;5023062;28;20436;-66
2022/04/27 05:22:42;;;;;;;6.47;3.60;;;;;;;;;;5033237;28;20464;-66
2022/04/27 05:25:10;;;;;;;6.90;3.92;;;;;;;;;;5016419;28;20463;-66
2022/04/27 05:27:36;;;;;;;9.30;4.00;;;8.80;99.90;;;;;;5032085;28;20420;-67
2022/04/27 05:32:48;;;;;;;7.20;4.32;;;;;;;;;;5035206;28;20941;-66
2022/04/27 05:35:15;;;;;;;6.78;4.50;;;;;;;;;;5031145;28;20449;-68
2022/04/27 05:37:41;;;;;;;7.60;3.95;;;;;;;;;;5023830;28;20922;-67
2022/04/27 05:40:08;;;;;;;7.50;4.05;;;;;;;;;;5023297;28;20418;-67
2022/04/27 05:42:36;;;;;;;6.53;3.90;;;;;;;;;;5013168;28;20421;-67
2022/04/27 05:45:02;;;;;;;6.35;3.75;;;;;;;;;;5027959;28;20493;-67
2022/04/27 05:47:28;;;;;;;7.38;3.83;;;;;;;;;;5031904;28;20419;-67
2022/04/27 05:49:54;;;;;;;7.78;4.50;;;;;;;;;;5021582;28;20447;-67
2022/04/27 05:52:20;;;;;;;7.25;4.88;;;9.10;99.90;;;;;;5032064;28;20432;-66
2022/04/27 05:54:47;;;;;;;9.23;4.88;;;9.10;99.90;;;;;;5016261;28;21010;-67
2022/04/27 05:57:13;;;;;;;9.23;4.90;;;;;;;;;;5034947;28;20419;-67
2022/04/27 05:59:39;;;;;;;6.38;4.28;;;;;;;;;;5023558;28;20440;-67
2022/04/27 06:02:06;;;;;;;8.25;4.25;;;;;;;;;;5031206;28;20778;-67
2022/04/27 06:04:32;;;;;;;8.07;4.30;;;;;;;;;;5025017;28;21099;-66
2022/04/27 06:06:58;;;;;;;7.45;4.30;;;;;;;;;;5025491;28;20522;-66
2022/04/27 06:09:24;;;;;;;7.18;4.10;;;;;;;;;;5021219;28;20424;-67
2022/04/27 06:11:50;;;;;;;6.63;3.67;;;;;;;;;;5021636;28;20459;-67
2022/04/27 06:14:16;;;;;;;7.57;3.97;;;9.50;99.90;;;;;;5036818;28;20458;-67
2022/04/27 06:16:42;;;;;;;7.90;4.03;;;;;;;;;;5025568;28;20422;-67
2022/04/27 06:19:09;;;;;;;8.52;4.53;;;;;;;;;;5028575;28;20487;-68
2022/04/27 06:21:35;;;;;;;8.00;4.60;;;;;;;;;;5028879;28;20510;-66
2022/04/27 06:24:04;;;;;;;8.07;4.50;;;;;;;;;;5031580;28;20524;-66
2022/04/27 06:26:33;;;;;;;7.07;4.30;;;;;;;;;;5030962;28;20760;-67
2022/04/27 06:28:59;;;;;;;6.93;3.80;;;;;;;;;;5026108;28;20419;-69
2022/04/27 06:31:25;;;;;;;6.50;3.55;;;;;;;;;;5028306;28;20444;-67
2022/04/27 06:33:51;;;;;;;5.27;3.33;;;;;;;;;;5032867;28;20488;-68
2022/04/27 06:36:18;;;;;;;8.05;3.80;;;;;;;;;;5034498;28;20453;-67
2022/04/27 06:38:44;;;;;;;7.00;2.90;;;;;;;;;;5031066;28;20427;-69
2022/04/27 06:41:10;;;;;;;7.33;3.10;;;;;;;;;;5018776;28;20456;-67
2022/04/27 06:43:36;;;;;;;6.43;3.58;;;;;;;;;;5018232;28;20436;-67
2022/04/27 06:46:02;;;;;;;6.75;3.13;;;;;;;;;;5026216;28;20419;-67
2022/04/27 06:48:28;;;;;;;7.17;3.60;;;9.80;99.90;;;;;;5018973;28;20502;-68
2022/04/27 06:50:55;;;;;;;5.65;3.55;;;;;;;;;;5020970;28;20432;-67
2022/04/27 06:53:21;;;;;;;7.30;3.70;;;;;;;;;;5030118;28;20878;-67
2022/04/27 06:55:49;;;;;;;8.20;4.07;;;;;;;;;;5017277;28;20421;-67
2022/04/27 06:58:15;;;;;;;7.80;3.47;;;;;;;;;;5014245;28;20451;-67
2022/04/27 07:00:41;;;;;;;11.98;3.95;;;;;;;;;;5019726;28;20432;-67
2022/04/27 07:03:07;;;;;;;6.53;4.03;;;;;;;;;;5017860;28;20431;-67
2022/04/27 07:05:34;;;;;;;6.97;3.47;;;;;;;;;;5022832;28;20446;-67
2022/04/27 07:08:00;;;;;;;7.40;4.15;;;;;;;;;;5024441;28;20506;-68
2022/04/27 07:10:26;;;;;;;8.57;4.03;;;;;;;;;;5019472;28;20968;-68
2022/04/27 07:12:52;;;;;;;9.88;4.47;;;;;;;;;;5031975;28;20445;-67
2022/04/27 07:15:18;;;;;;;6.40;3.30;;;;;;;;;;5027473;28;20564;-67
2022/04/27 07:17:44;;;;;;;5.80;3.50;;;10.40;99.90;;;;;;5020065;28;20439;-67
2022/04/27 07:20:10;;;;;;;7.80;3.70;;;;;;;;;;5031043;28;20431;-67
2022/04/27 07:22:37;;;;;;;8.53;3.50;;;;;;;;;;5035791;28;20423;-66
2022/04/27 07:25:03;;;;;;;7.70;3.65;;;;;;;;;;5019064;28;20437;-67
2022/04/27 07:27:31;;;;;;;6.28;3.45;;;;;;;;;;5027743;28;20449;-67
2022/04/27 07:29:58;;;;;;;11.82;7.50;;;;;;;;;;5018380;28;20428;-67
2022/04/27 07:32:24;;;;;;;7.65;3.42;;;;;;;;;;5019110;28;20428;-67
2022/04/27 07:34:51;;;;;;;7.55;3.67;;;;;;;;;;5036278;28;20565;-67
2022/04/27 07:37:18;;;;;;;9.65;6.07;;;;;;;;;;5030440;28;21045;-67
2022/04/27 07:39:44;;;;;;;7.27;3.30;;;;;;;;;;5023071;28;20440;-67
2022/04/27 07:42:10;;;;;;;5.97;3.38;;;;;;;;;;5012235;28;20523;-67
2022/04/27 07:44:36;;;;;;;8.77;3.30;;;;;;;;;;5019272;28;20472;-67
2022/04/27 07:47:03;;;;;;;6.18;3.00;;;;;;;;;;5034022;28;20462;-67
2022/04/27 07:49:29;;;;;;;7.70;2.90;;;;;;;;;;5017179;28;20432;-64
2022/04/27 07:51:55;;;;;;;8.57;3.38;;;;;;;;;;5027740;28;20430;-68
2022/04/27 07:54:21;;;;;;;6.93;2.83;;;;;;;;;;5026284;28;20435;-67
2022/04/27 07:56:47;;;;;;;5.78;2.83;;;;;;;;;;5042858;28;20421;-67
2022/04/27 07:59:13;;;;;;;8.10;2.67;;;;;;;;;;5032034;28;20498;-68
2022/04/27 08:01:39;;;;;;;7.60;2.53;;;;;;;;;;5025551;28;20436;-68
2022/04/27 08:04:05;;;;;;;6.88;2.58;;;11.30;99.90;;;;;;5028787;28;20467;-68
2022/04/27 08:06:31;;;;;;;6.73;2.67;;;;;;;;;;5012211;28;20432;-66
2022/04/27 08:08:57;;;;;;;4.25;2.50;;;11.00;99.90;;;;;;5012564;28;20508;-67
2022/04/27 08:11:23;;;;;;;6.77;3.00;;;;;;;;;;5022659;28;20459;-68
2022/04/27 08:13:49;;;;;;;6.70;3.00;;;;;;;;;;5030374;28;20494;-64
2022/04/27 08:16:15;;;;;;;6.90;2.67;;;;;;;;;;4997273;28;20838;-66
2022/04/27 08:18:41;;;;;;;7.53;2.80;;;;;;;;;;4997100;28;20420;-66
2022/04/27 08:21:14;;;;;;;7.43;3.15;;;;;;;;;;4998372;28;20428;-66
2022/04/27 08:23:40;;;;;;;8.80;3.30;;;;;;;;;;5004244;28;20429;-66
2022/04/27 08:26:07;;;;;;;8.95;2.90;;;;;;;;;;5005652;28;20813;-66
2022/04/27 08:28:34;;;;;;;5.30;2.67;;;;;;;;;;5013558;28;20746;-67
2022/04/27 08:31:00;;;;;;;6.88;2.85;;;;;;;;;;5004373;28;20449;-65
2022/04/27 08:33:27;;;;;;;8.75;3.03;;;;;;;;;;5007794;28;20424;-65
2022/04/27 08:35:57;;;;;;;9.88;2.85;;;;;;;;;;5007760;28;20451;-65
2022/04/27 08:38:24;;;;;;;8.53;2.67;;;;;;;;;;5010940;28;20418;-66
2022/04/27 08:40:50;;;;;;;8.15;2.42;;;;;;;;;;5004389;28;20434;-66
2022/04/27 08:43:16;;;;;;;5.77;2.40;;;;;;;;;;5000812;28;20418;-65
2022/04/27 08:45:43;;;;;;;5.93;2.35;;;;;;;;;;4997469;28;20461;-66
2022/04/27 08:48:10;;;;;;;7.43;3.03;;;;;;;;;;5002536;28;20427;-67
2022/04/27 08:50:36;;;;;;;6.88;3.10;;;;;;;;;;5005445;28;20421;-66
2022/04/27 08:53:03;;;;;;;6.25;2.90;;;;;;;;;;5010770;28;20520;-67
2022/04/27 08:55:29;;;;;;;7.23;3.30;;;;;;;;;;5008324;28;20429;-66
2022/04/27 08:58:06;;;;;;;8.40;3.20;;;;;;;;;;5020199;28;20994;-67
2022/04/27 09:00:32;;;;;;;8.55;3.40;;;;;;;;;;5018528;28;20470;-65
2022/04/27 09:03:18;;;;;;;7.50;3.70;;;;;;;;;;5034134;28;20426;-65
2022/04/27 09:05:51;;;;;;;6.07;3.50;;;;;;;;;;5017805;28;20435;-65
2022/04/27 09:08:17;;;;;;;10.25;3.30;;;;;;;;;;5026706;28;20433;-66
2022/04/27 09:10:43;;;;;;;13.85;3.90;;;;;;;;;;5027781;28;20924;-65
2022/04/27 09:13:09;;;;;;;11.80;3.80;;;;;;;;;;5034379;28;20550;-65
2022/04/27 09:15:36;;;;;;;12.38;3.97;;;;;;;;;;5030152;28;20485;-66
2022/04/27 09:20:46;;;;;;;9.93;3.65;;;;;;;;;;5023530;28;20445;-64
2022/04/27 09:23:25;;;;;;;14.45;3.97;;;;;;;;;;5034515;28;20965;-65
2022/04/27 09:25:55;;;;;;;13.23;3.60;;;;;;;;;;5022144;28;20448;-66
2022/04/27 09:28:29;;;;;;;11.77;3.58;;;;;;;;;;5035531;28;20442;-65
2022/04/27 09:30:56;;;;;;;13.83;3.63;;;10.90;99.90;;;;;;5034766;28;20486;-64
2022/04/27 09:33:35;;;;;;;11.00;3.45;;;;;;;;;;5028951;28;20487;-64
2022/04/27 09:36:02;;;;;;;11.10;3.20;;;;;;;;;;5031035;28;20431;-65
2022/04/27 09:38:41;;;;;;;12.53;3.43;;;;;;;;;;5031912;28;20775;-65
2022/04/27 09:41:08;;;;;;;8.95;3.45;;;;;;;;;;5017711;28;20423;-66
2022/04/27 09:43:42;;;;;;;11.13;3.17;;;11.00;99.90;;;;;;5032923;28;20426;-66
2022/04/27 09:46:22;;;;;;;13.80;3.85;;;;;;;;;;5033682;28;20438;-65
2022/04/27 09:48:51;;;;;;;12.17;3.50;;;;;;;;;;5033446;28;20502;-66
2022/04/27 09:51:17;;;;;;;14.52;3.60;;;;;;;;;;5037749;28;20510;-66
2022/04/27 09:53:43;;;;;;;14.13;3.75;;;;;;;;;;5037694;28;20506;-66
2022/04/27 09:56:13;;;;;;;13.23;3.35;;;;;;;;;;5024672;28;20446;-66
2022/04/27 09:58:45;;;;;;;11.93;3.40;;;;;;;;;;5035183;28;20495;-66
2022/04/27 10:01:14;;;;;;;13.70;3.53;;;;;;;;;;5039448;28;20439;-66
2022/04/27 10:03:41;;;;;;;9.55;3.10;;;;;;;;;;5030262;28;20555;-66
2022/04/27 10:06:07;;;;;;;10.35;3.20;;;;;;;;;;5028928;28;20438;-65
2022/04/27 10:08:39;;;;;;;10.90;3.40;;;;;;;;;;5037483;28;20933;-66
2022/04/27 10:11:07;;;;;;;14.90;3.15;;;;;;;;;;5022582;28;20430;-66
2022/04/27 10:13:32;;;;;;;12.68;3.30;;;11.20;99.90;;;;;;5038975;28;20950;-65
2022/04/27 10:15:58;;;;;;;13.33;3.23;;;;;;;;;;5027765;28;20429;-66
2022/04/27 10:18:25;;;;;;;10.25;3.30;;;;;;;;;;5034268;28;20866;-65
2022/04/27 10:20:53;;;;;;;9.40;3.00;;;;;;;;;;5035532;28;20414;-65
2022/04/27 10:23:22;;;;;;;11.80;3.05;;;;;;;;;;5035395;28;20424;-67
2022/04/27 10:26:06;;;;;;;11.73;3.40;;;;;;;;;;5027799;28;20441;-66
2022/04/27 10:28:34;;;;;;;13.07;3.40;;;;;;;;;;5037377;28;20790;-66
2022/04/27 10:31:07;;;;;;;11.40;3.25;;;;;;;;;;5028650;28;20438;-65
2022/04/27 10:33:39;;;;;;;12.93;3.70;;;;;;;;;;5027925;28;20424;-66
2022/04/27 10:36:24;;;;;;;10.73;3.30;;;;;;;;;;5035859;28;20472;-66
2022/04/27 10:39:12;;;;;;;13.00;3.35;;;11.10;99.90;;;;;;5035152;28;20442;-66
2022/04/27 10:41:42;;;;;;;13.95;3.17;;;;;;;;;;5029235;28;20494;-65
2022/04/27 10:44:08;;;;;;;14.52;3.83;;;;;;;;;;5029423;28;20434;-65
2022/04/27 10:46:52;;;;;;;12.87;3.30;;;;;;;;;;5028644;28;20492;-65
2022/04/27 10:49:24;;;;;;;10.50;3.28;;;;;;;;;;5038474;28;20438;-65
2022/04/27 10:52:04;;;;;;;8.45;2.92;;;;;;;;;;5036434;28;20458;-66
2022/04/27 10:54:32;;;;;;;9.35;2.50;;;11.90;99.90;;;;;;4999238;28;20454;-66
2022/04/27 10:57:16;;;;;;;10.50;3.00;;;;;;;;;;5020109;28;20932;-66
2022/04/27 10:59:42;;;;;;;9.77;2.83;;;;;;;;;;5025874;28;20428;-65
2022/04/27 11:02:28;;;;;;;11.52;3.03;;;;;;;;;;5036938;28;20450;-66
2022/04/27 11:04:54;;;;;;;9.93;3.10;;;12.70;99.90;;;;;;5020350;28;20441;-65
2022/04/27 11:07:28;;;;;;;10.75;3.60;;;;;;;;;;5020307;28;20438;-66
2022/04/27 11:10:10;;;;;;;10.23;2.70;;;;;;;;;;5022065;28;21019;-66
2022/04/27 11:12:37;;;;;;;10.00;3.17;;;;;;;;;;5025471;28;20806;-66
2022/04/27 11:15:03;;;;;;;10.07;3.55;;;;;;;;;;5004098;28;20444;-67
2022/04/27 11:17:30;;;;;;;10.80;2.90;;;;;;;;;;5031419;28;20874;-66
2022/04/27 11:19:56;;;;;;;8.32;2.75;;;;;;;;;;5025398;28;20473;-66
2022/04/27 11:22:22;;;;;;;8.77;2.70;;;;;;;;;;5024555;28;20468;-65
2022/04/27 11:24:49;;;;;;;8.55;3.03;;;;;;;;;;5020450;28;20443;-65
2022/04/27 11:27:26;;;;;;;11.23;3.13;;;;;;;;;;5024033;28;20480;-65
2022/04/27 11:29:53;;;;;;;6.57;2.87;;;;;;;;;;5027424;28;20435;-67
2022/04/27 11:32:19;;;;;;;11.75;2.67;;;;;;;;;;5003943;28;20452;-66
2022/04/27 11:34:48;;;;;;;9.32;2.90;;;;;;;;;;5020341;28;20533;-65
2022/04/27 11:37:19;;;;;;;15.57;3.00;;;;;;;;;;5028911;28;20915;-65
2022/04/27 11:39:45;;;;;;;9.07;2.83;;;;;;;;;;5017485;28;20428;-66
2022/04/27 11:42:12;;;;;;;8.95;2.88;;;;;;;;;;5024993;28;20491;-66
2022/04/27 11:44:41;;;;;;;9.55;3.10;;;;;;;;;;5032909;28;20438;-66
2022/04/27 11:47:30;;;;;;;12.38;3.17;;;;;;;;;;5016935;28;20435;-66
2022/04/27 11:49:57;;;;;;;9.23;2.97;;;;;;;;;;5027637;28;20423;-66
2022/04/27 11:52:23;;;;;;;8.20;2.77;;;;;;;;;;5025733;28;20439;-65
2022/04/27 11:54:50;;;;;;;6.68;2.70;;;;;;;;;;5024144;28;20412;-64
2022/04/27 11:57:23;;;;;;;8.77;3.10;;;;;;;;;;5028515;28;20419;-65
2022/04/27 11:59:56;;;;;;;7.67;2.73;;;;;;;;;;5014238;28;20766;-64
2022/04/27 12:02:23;;;;;;;7.78;3.20;;;;;;;;;;5018257;28;20438;-65
2022/04/27 12:04:51;;;;;;;9.55;2.97;;;;;;;;;;5017178;28;20436;-64
2022/04/27 12:07:21;;;;;;;6.75;3.08;;;;;;;;;;5022778;28;20444;-66
2022/04/27 12:10:04;;;;;;;8.00;2.80;;;;;;;;;;5029436;28;20425;-65
2022/04/27 12:12:31;;;;;;;8.07;2.70;;;14.40;99.90;;;;;;5013424;28;20423;-66
2022/04/27 12:14:58;;;;;;;9.38;3.05;;;;;;;;;;5015843;28;20962;-65
2022/04/27 12:17:41;;;;;;;8.20;2.75;;;;;;;;;;5022155;28;20500;-65
2022/04/27 12:20:07;;;;;;;8.93;3.05;;;;;;;;;;5020175;28;20432;-65
2022/04/27 12:22:33;;;;;;;9.48;2.95;;;;;;;;;;5009473;28;20442;-65
2022/04/27 12:25:05;;;;;;;8.65;2.75;;;13.40;99.90;;;;;;5014577;28;20447;-66
2022/04/27 12:27:31;;;;;;;10.15;3.00;;;;;;;;;;5032799;28;20446;-66
2022/04/27 12:30:07;;;;;;;10.07;3.38;;;;;;;;;;5024552;28;20454;-65
2022/04/27 12:32:34;;;;;;;8.25;2.92;;;;;;;;;;5020725;28;20431;-67
2022/04/27 12:37:52;;;;;;;9.30;3.22;;;;;;;;;;5018315;28;20407;-65
2022/04/27 12:40:18;;;;;;;10.93;3.22;;;;;;;;;;5025535;28;20876;-64
2022/04/27 12:43:05;;;;;;;12.93;3.70;;;12.90;99.90;;;;;;5022254;28;20420;-65
2022/04/27 12:45:34;;;;;;;12.48;4.03;;;;;;;;;;5019693;28;20480;-65
2022/04/27 12:48:01;;;;;;;10.05;3.55;;;;;;;;;;5028926;28;20434;-65
2022/04/27 12:50:27;;;;;;;9.97;3.43;;;;;;;;;;5025213;28;20584;-65
2022/04/27 12:53:06;;;;;;;12.38;3.60;;;;;;;;;;5025430;28;20427;-66
2022/04/27 12:55:32;;;;;;;11.15;3.67;;;;;;;;;;5016438;28;20468;-65
2022/04/27 12:58:02;;;;;;;12.82;3.78;;;;;;;;;;5020717;28;20990;-66
2022/04/27 13:00:48;;;;;;;9.55;3.50;;;;;;;;;;5029701;28;20435;-66
2022/04/27 13:03:14;;;;;;;12.95;3.75;;;;;;;;;;5021275;28;21871;-65
2022/04/27 13:05:42;;;;;;;10.82;3.50;;;;;;;;;;5016174;28;22968;-66
2022/04/27 13:08:11;;;;;;;11.57;3.72;;;;;;;;;;5020927;28;20425;-66
2022/04/27 13:13:23;;;;;;;14.07;4.20;;;;;;;;;;5024317;28;20457;-65
2022/04/27 13:15:49;;;;;;;10.75;3.25;;;;;;;;;;5026794;28;20446;-66
2022/04/27 13:18:19;;;;;;;12.73;3.65;;;;;;;;;;5023345;28;20432;-65
2022/04/27 13:20:45;;;;;;;11.38;4.05;;;;;;;;;;5017117;28;20460;-66
2022/04/27 13:23:11;;;;;;;8.20;3.30;;;;;;;;;;5015231;28;20434;-65
2022/04/27 13:25:38;;;;;;;12.27;3.30;;;;;;;;;;5008826;28;20436;-65
2022/04/27 13:28:04;;;;;;;12.27;3.47;;;;;;;;;;5016913;28;20440;-66
2022/04/27 13:30:30;;;;;;;9.73;3.55;;;;;;;;;;5018717;28;20444;-66
2022/04/27 13:32:58;;;;;;;9.18;3.42;;;;;;;;;;5017675;28;20421;-66
2022/04/27 13:35:24;;;;;;;10.52;3.72;;;;;;;;;;5029609;28;20493;-65
2022/04/27 13:37:50;;;;;;;11.25;3.42;;;;;;;;;;5015636;28;20419;-66
2022/04/27 13:40:17;;;;;;;12.05;3.58;;;;;;;;;;5024639;28;20449;-66
2022/04/27 13:42:43;;;;;;;11.45;3.75;;;;;;;;;;5016279;28;20457;-66
2022/04/27 13:45:14;;;;;;;11.02;3.25;;;;;;;;;;5021049;28;20434;-66
2022/04/27 13:47:41;;;;;;;9.93;3.20;;;;;;;;;;5024130;28;20456;-64
2022/04/27 13:50:07;;;;;;;11.27;3.20;;;;;;;;;;5018625;28;20889;-66
2022/04/27 13:52:33;;;;;;;11.68;3.75;;;;;;;;;;5017586;28;20424;-65
2022/04/27 13:55:00;;;;;;;9.63;3.45;;;;;;;;;;5010363;28;20432;-65
2022/04/27 13:57:26;;;;;;;10.75;3.47;;;;;;;;;;5017410;28;20435;-65
2022/04/27 13:59:52;;;;;;;10.38;3.30;;;;;;;;;;5016471;28;20436;-65
2022/04/27 14:02:19;;;;;;;11.07;3.28;;;;;;;;;;5016238;28;20428;-66
2022/04/27 14:04:45;;;;;;;12.23;3.63;;;;;;;;;;5014880;28;20452;-65
2022/04/27 14:07:11;;;;;;;8.57;3.10;;;;;;;;;;5017270;28;20490;-65
2022/04/27 14:09:37;;;;;;;10.60;3.30;;;;;;;;;;5019967;28;20490;-66
2022/04/27 14:14:48;;;;;;;9.60;3.80;;;;;;;;;;5027579;28;20537;-65
2022/04/27 14:19:59;;;;;;;11.23;3.20;;;;;;;;;;5028060;28;21058;-66
2022/04/27 14:22:27;;;;;;;13.30;3.50;;;;;;;;;;5025201;28;20819;-66
2022/04/27 14:24:53;;;;;;;8.30;3.03;;;;;;;;;;5024719;28;20461;-66
2022/04/27 14:27:19;;;;;;;9.02;3.10;;;;;;;;;;5026662;28;20421;-66
2022/04/27 14:29:46;;;;;;;10.88;2.80;;;;;;;;;;5033218;28;20477;-65
2022/04/27 14:32:12;;;;;;;9.90;3.10;;;;;;;;;;5017023;28;20423;-67
2022/04/27 14:34:38;;;;;;;8.75;2.63;;;;;;;;;;5017803;28;20955;-65
2022/04/27 14:37:04;;;;;;;8.35;2.90;;;;;;;;;;5017163;28;20435;-66
2022/04/27 14:39:30;;;;;;;9.43;2.70;;;;;;;;;;5017175;28;20850;-66
2022/04/27 14:41:57;;;;;;;8.35;2.78;;;;;;;;;;5015315;28;20434;-65
2022/04/27 14:44:23;;;;;;;10.48;2.90;;;;;;;;;;5020268;28;20530;-66
2022/04/27 14:46:50;;;;;;;10.45;3.17;;;;;;;;;;5021175;28;20417;-66
2022/04/27 14:49:16;;;;;;;7.70;2.63;;;;;;;;;;5012131;28;20437;-66
2022/04/27 14:51:44;;;;;;;7.70;2.60;;;13.10;99.90;;;;;;5017513;28;20447;-65